Time,TemperatureF,DewpointF,PressureIn,WindDirection,WindDirectionDegrees,WindSpeedMPH,WindSpeedGustMPH,Humidity,HourlyPrecipIn,Conditions,Clouds,dailyrainin,SoftwareType,DateUTC
2013-08-22 00:13:00,73.0,69.0,29.88,SSW,209,1.0,4.0,86,0.00,,,0.00,,2013-08-22 05:13:00,
2013-08-22 00:22:00,72.0,68.0,29.88,SSW,194,0.0,3.0,86,0.00,,,0.00,,2013-08-22 05:22:00,
2013-08-22 00:43:00,71.0,67.0,29.90,South,185,0.0,3.0,87,0.00,,,0.00,,2013-08-22 05:43:00,
2013-08-22 00:53:00,71.0,67.0,29.91,SSW,196,0.0,2.0,87,0.00,,,0.00,,2013-08-22 05:53:00,
2013-08-22 01:12:00,72.0,68.0,29.91,SSW,194,0.0,2.0,87,0.00,,,0.00,,2013-08-22 06:12:00,
2013-08-22 01:22:00,70.0,67.0,29.90,South,178,2.0,4.0,89,0.00,,,0.00,,2013-08-22 06:22:00,
2013-08-22 01:42:00,70.0,67.0,29.90,South,182,2.0,5.0,90,0.00,,,0.00,,2013-08-22 06:42:00,
2013-08-22 01:52:00,69.0,66.0,29.90,South,191,2.0,4.0,91,0.00,,,0.00,,2013-08-22 06:52:00,
2013-08-22 02:11:00,69.0,66.0,29.90,South,191,1.0,7.0,91,0.00,,,0.00,,2013-08-22 07:11:00,
2013-08-22 02:22:00,69.0,66.0,29.89,South,178,2.0,4.0,91,0.00,,,0.00,,2013-08-22 07:22:00,
2013-08-22 02:42:00,69.0,66.0,29.90,South,182,1.0,3.0,91,0.00,,,0.00,,2013-08-22 07:42:00,
2013-08-22 02:53:00,69.0,66.0,29.90,South,184,2.0,4.0,91,0.00,,,0.00,,2013-08-22 07:53:00,
2013-08-22 03:12:00,69.0,66.0,29.91,South,183,0.0,4.0,91,0.00,,,0.00,,2013-08-22 08:12:00,
2013-08-22 03:22:00,70.0,67.0,29.97,East,86,7.0,14.0,91,0.00,,,0.00,,2013-08-22 08:22:00,
2013-08-22 03:43:00,73.0,68.0,29.99,NE,36,4.0,13.0,83,0.00,,,0.00,,2013-08-22 08:43:00,
2013-08-22 03:53:00,73.0,67.0,29.99,ENE,61,2.0,5.0,82,0.00,,,0.00,,2013-08-22 08:53:00,
2013-08-22 04:11:00,73.0,68.0,29.98,ENE,69,0.0,2.0,83,0.00,,,0.00,,2013-08-22 09:11:00,
2013-08-22 04:22:00,72.0,67.0,29.98,ENE,70,1.0,3.0,84,0.00,,,0.00,,2013-08-22 09:22:00,
2013-08-22 04:43:00,72.0,67.0,29.98,East,86,2.0,5.0,85,0.00,,,0.00,,2013-08-22 09:43:00,
2013-08-22 04:54:00,71.0,66.0,29.98,East,90,3.0,7.0,85,0.00,,,0.00,,2013-08-22 09:54:00,
2013-08-22 05:12:00,72.0,68.0,29.98,East,94,4.0,7.0,86,0.00,,,0.00,,2013-08-22 10:12:00,
2013-08-22 05:23:00,71.0,66.0,29.98,East,80,5.0,10.0,84,0.00,,,0.00,,2013-08-22 10:23:00,
2013-08-22 05:32:00,71.0,67.0,29.99,East,91,2.0,5.0,86,0.00,,,0.00,,2013-08-22 10:32:00,
2013-08-22 05:42:00,71.0,66.0,29.98,East,94,3.0,6.0,85,0.00,,,0.00,,2013-08-22 10:42:00,
2013-08-22 07:42:00,68.0,65.0,30.00,ENE,76,0.0,0.0,91,0.00,,,0.00,,2013-08-22 12:42:00,
2013-08-22 07:52:00,68.0,65.0,29.98,ENE,76,0.0,0.0,91,0.00,,,0.00,,2013-08-22 12:52:00,
2013-08-22 08:12:00,69.0,66.0,29.97,SE,138,2.0,3.0,91,0.00,,,0.00,,2013-08-22 13:12:00,
2013-08-22 08:22:00,68.0,66.0,29.95,South,182,3.0,5.0,93,0.00,,,0.00,,2013-08-22 13:22:00,
2013-08-22 08:52:00,69.0,66.0,29.94,South,172,2.0,7.0,90,0.00,,,0.00,,2013-08-22 13:52:00,
2013-08-22 09:11:00,70.0,67.0,29.95,SE,146,3.0,5.0,90,0.00,,,0.00,,2013-08-22 14:11:00,
2013-08-22 09:22:00,70.0,67.0,29.95,SSE,161,3.0,5.0,90,0.00,,,0.00,,2013-08-22 14:22:00,
2013-08-22 09:52:00,71.0,68.0,29.93,South,185,7.0,12.0,90,0.00,,,0.00,,2013-08-22 14:52:00,
2013-08-22 10:12:00,72.0,69.0,29.94,SSE,167,6.0,12.0,89,0.00,,,0.00,,2013-08-22 15:12:00,
2013-08-22 10:22:00,73.0,69.0,29.94,SSE,165,7.0,11.0,88,0.00,,,0.00,,2013-08-22 15:22:00,
2013-08-22 10:43:00,73.0,69.0,29.94,South,176,6.0,9.0,88,0.00,,,0.00,,2013-08-22 15:43:00,
2013-08-22 10:55:00,73.0,69.0,29.96,South,177,5.0,8.0,87,0.00,,,0.00,,2013-08-22 15:55:00,
2013-08-22 11:14:00,74.0,70.0,29.96,South,178,4.0,7.0,86,0.00,,,0.00,,2013-08-22 16:14:00,
2013-08-22 11:24:00,74.0,70.0,29.96,SSE,164,4.0,8.0,86,0.00,,,0.00,,2013-08-22 16:24:00,
2013-08-22 11:43:00,74.0,70.0,29.96,South,179,2.0,5.0,87,0.00,,,0.00,,2013-08-22 16:43:00,
2013-08-22 11:54:00,75.0,71.0,29.97,South,174,2.0,6.0,87,0.00,,,0.00,,2013-08-22 16:54:00,
2013-08-22 12:12:00,76.0,70.0,29.98,SSE,159,4.0,7.0,83,0.00,,,0.00,,2013-08-22 17:12:00,
2013-08-22 12:24:00,76.0,70.0,29.98,SSE,163,2.0,5.0,83,0.00,,,0.00,,2013-08-22 17:24:00,
2013-08-22 12:43:00,78.0,72.0,29.98,SSE,167,1.0,5.0,82,0.00,,,0.00,,2013-08-22 17:43:00,
2013-08-22 12:53:00,78.0,72.0,29.98,SE,136,2.0,5.0,81,0.00,,,0.00,,2013-08-22 17:53:00,
2013-08-22 13:12:00,80.0,72.0,29.98,SSW,197,3.0,5.0,77,0.00,,,0.00,,2013-08-22 18:12:00,
2013-08-22 13:22:00,80.0,72.0,29.97,SSW,194,2.0,7.0,76,0.00,,,0.00,,2013-08-22 18:22:00,
2013-08-22 13:43:00,81.0,72.0,29.97,South,175,3.0,6.0,73,0.00,,,0.00,,2013-08-22 18:43:00,
2013-08-22 13:52:00,81.0,73.0,29.97,South,180,2.0,5.0,76,0.00,,,0.00,,2013-08-22 18:52:00,
2013-08-22 14:11:00,82.0,73.0,29.97,SW,220,1.0,6.0,75,0.00,,,0.00,,2013-08-22 19:11:00,
2013-08-22 14:22:00,81.0,72.0,29.96,SSE,165,3.0,7.0,73,0.00,,,0.00,,2013-08-22 19:22:00,
2013-08-22 14:42:00,82.0,72.0,29.96,South,186,2.0,5.0,72,0.00,,,0.00,,2013-08-22 19:42:00,
2013-08-22 14:53:00,82.0,73.0,29.96,South,171,2.0,5.0,74,0.00,,,0.00,,2013-08-22 19:53:00,
2013-08-22 16:13:00,82.0,72.0,29.95,SE,134,3.0,6.0,72,0.00,,,0.00,,2013-08-22 21:13:00,
2013-08-22 16:22:00,83.0,74.0,29.94,SSE,155,2.0,6.0,74,0.00,,,0.00,,2013-08-22 21:22:00,
2013-08-22 16:44:00,83.0,74.0,29.94,SSE,155,3.0,7.0,74,0.00,,,0.00,,2013-08-22 21:44:00,
2013-08-22 16:54:00,83.0,73.0,29.93,SE,142,4.0,7.0,72,0.00,,,0.00,,2013-08-22 21:54:00,
2013-08-22 17:13:00,84.0,76.0,29.93,South,170,3.0,7.0,77,0.00,,,0.00,,2013-08-22 22:13:00,
2013-08-22 17:24:00,84.0,74.0,29.93,South,191,3.0,7.0,73,0.00,,,0.00,,2013-08-22 22:24:00,
2013-08-22 17:42:00,83.0,73.0,29.93,South,176,4.0,6.0,73,0.00,,,0.00,,2013-08-22 22:42:00,
2013-08-22 17:53:00,83.0,73.0,29.93,SSE,168,3.0,8.0,73,0.00,,,0.00,,2013-08-22 22:53:00,
2013-08-22 18:11:00,83.0,73.0,29.93,South,190,3.0,6.0,72,0.00,,,0.00,,2013-08-22 23:11:00,
2013-08-22 18:22:00,83.0,73.0,29.92,South,171,3.0,6.0,73,0.00,,,0.00,,2013-08-22 23:22:00,
2013-08-22 18:42:00,83.0,73.0,29.92,South,180,3.0,5.0,73,0.00,,,0.00,,2013-08-22 23:42:00,
2013-08-22 18:53:00,83.0,73.0,29.92,South,176,2.0,5.0,73,0.00,,,0.00,,2013-08-22 23:53:00,
2013-08-22 19:12:00,82.0,73.0,29.92,South,178,1.0,5.0,74,0.00,,,0.00,,2013-08-23 00:12:00,
2013-08-22 19:23:00,81.0,73.0,29.92,South,173,2.0,3.0,76,0.00,,,0.00,,2013-08-23 00:23:00,
2013-08-22 19:42:00,80.0,72.0,29.92,SE,144,2.0,4.0,78,0.00,,,0.00,,2013-08-23 00:42:00,
2013-08-22 19:52:00,79.0,73.0,29.92,SE,137,2.0,3.0,81,0.00,,,0.00,,2013-08-23 00:52:00,
2013-08-22 20:11:00,79.0,73.0,29.92,SE,132,2.0,4.0,82,0.00,,,0.00,,2013-08-23 01:11:00,
2013-08-22 20:21:00,78.0,73.0,29.92,SE,132,3.0,4.0,84,0.00,,,0.00,,2013-08-23 01:21:00,
2013-08-22 20:42:00,77.0,72.0,29.92,SE,130,2.0,4.0,86,0.00,,,0.00,,2013-08-23 01:42:00,
2013-08-22 20:52:00,76.0,72.0,29.92,SE,130,2.0,4.0,87,0.00,,,0.00,,2013-08-23 01:52:00,
2013-08-22 21:11:00,76.0,72.0,29.93,ESE,121,2.0,4.0,87,0.00,,,0.00,,2013-08-23 02:11:00,
2013-08-22 21:23:00,75.0,71.0,29.93,ESE,117,2.0,3.0,88,0.00,,,0.00,,2013-08-23 02:23:00,
2013-08-22 21:42:00,75.0,72.0,29.94,ESE,120,2.0,4.0,89,0.00,,,0.00,,2013-08-23 02:42:00,
2013-08-22 21:52:00,74.0,71.0,29.95,ESE,123,2.0,3.0,90,0.00,,,0.00,,2013-08-23 02:52:00,
2013-08-22 22:12:00,73.0,71.0,29.95,SE,130,3.0,4.0,92,0.00,,,0.00,,2013-08-23 03:12:00,
2013-08-22 22:23:00,73.0,71.0,29.96,SE,126,2.0,4.0,92,0.00,,,0.00,,2013-08-23 03:23:00,
2013-08-22 22:55:00,73.0,71.0,29.96,SE,127,3.0,4.0,94,0.00,,,0.00,,2013-08-23 03:55:00,
2013-08-22 23:13:00,72.0,70.0,29.96,SE,131,2.0,4.0,94,0.00,,,0.00,,2013-08-23 04:13:00,
2013-08-22 23:24:00,72.0,70.0,29.96,SE,135,2.0,4.0,94,0.00,,,0.00,,2013-08-23 04:24:00,
2013-08-22 23:43:00,72.0,70.0,29.96,SE,135,2.0,3.0,95,0.00,,,0.00,,2013-08-23 04:43:00,
2013-08-22 23:54:00,71.0,69.0,29.96,SE,135,2.0,4.0,95,0.00,,,0.00,,2013-08-23 04:54:00,